sensor_id;sensor_type;location;lat;lon;timestamp;P1;durP1;ratioP1;P2;durP2;ratioP2
22648;SDS011;11491;41.942;24.220;2023-05-07T00:01:13;22.42;;;15.50;;
22648;SDS011;11491;41.942;24.220;2023-05-07T00:03:40;31.85;;;19.73;;
22648;SDS011;11491;41.942;24.220;2023-05-07T00:06:08;22.83;;;17.60;;
22648;SDS011;11491;41.942;24.220;2023-05-07T00:08:37;18.80;;;15.25;;
22648;SDS011;11491;41.942;24.220;2023-05-07T00:11:04;19.75;;;13.85;;
22648;SDS011;11491;41.942;24.220;2023-05-07T00:13:31;19.40;;;12.93;;
22648;SDS011;11491;41.942;24.220;2023-05-07T00:16:00;17.40;;;11.98;;
22648;SDS011;11491;41.942;24.220;2023-05-07T00:18:27;13.20;;;11.15;;
22648;SDS011;11491;41.942;24.220;2023-05-07T00:20:54;16.85;;;12.43;;
22648;SDS011;11491;41.942;24.220;2023-05-07T00:23:22;17.92;;;11.27;;
22648;SDS011;11491;41.942;24.220;2023-05-07T00:25:49;12.98;;;10.25;;
22648;SDS011;11491;41.942;24.220;2023-05-07T00:28:16;15.13;;;10.25;;
22648;SDS011;11491;41.942;24.220;2023-05-07T00:30:42;15.35;;;9.98;;
22648;SDS011;11491;41.942;24.220;2023-05-07T00:33:09;14.55;;;10.38;;
22648;SDS011;11491;41.942;24.220;2023-05-07T00:35:36;16.50;;;11.50;;
22648;SDS011;11491;41.942;24.220;2023-05-07T00:38:03;13.07;;;10.57;;
22648;SDS011;11491;41.942;24.220;2023-05-07T00:40:31;23.58;;;12.57;;
22648;SDS011;11491;41.942;24.220;2023-05-07T00:42:58;18.90;;;10.00;;
22648;SDS011;11491;41.942;24.220;2023-05-07T00:45:25;94.22;;;43.70;;
22648;SDS011;11491;41.942;24.220;2023-05-07T00:47:53;21.30;;;15.38;;
22648;SDS011;11491;41.942;24.220;2023-05-07T00:50:21;20.58;;;14.27;;
22648;SDS011;11491;41.942;24.220;2023-05-07T00:52:48;30.90;;;18.88;;
22648;SDS011;11491;41.942;24.220;2023-05-07T00:55:15;20.25;;;17.33;;
22648;SDS011;11491;41.942;24.220;2023-05-07T00:57:43;19.88;;;16.88;;
22648;SDS011;11491;41.942;24.220;2023-05-07T01:00:11;10.57;;;8.80;;
22648;SDS011;11491;41.942;24.220;2023-05-07T01:02:39;20.90;;;15.70;;
22648;SDS011;11491;41.942;24.220;2023-05-07T01:05:06;25.02;;;17.52;;
22648;SDS011;11491;41.942;24.220;2023-05-07T01:07:35;19.85;;;14.88;;
22648;SDS011;11491;41.942;24.220;2023-05-07T01:10:03;20.45;;;14.55;;
22648;SDS011;11491;41.942;24.220;2023-05-07T01:12:32;19.88;;;12.95;;
22648;SDS011;11491;41.942;24.220;2023-05-07T01:15:00;15.73;;;11.50;;
22648;SDS011;11491;41.942;24.220;2023-05-07T01:17:28;15.57;;;12.20;;
22648;SDS011;11491;41.942;24.220;2023-05-07T01:19:54;17.02;;;10.93;;
22648;SDS011;11491;41.942;24.220;2023-05-07T01:22:29;17.45;;;12.18;;
22648;SDS011;11491;41.942;24.220;2023-05-07T01:24:57;16.92;;;11.23;;
22648;SDS011;11491;41.942;24.220;2023-05-07T01:27:26;17.75;;;11.60;;
22648;SDS011;11491;41.942;24.220;2023-05-07T01:29:53;13.85;;;10.30;;
22648;SDS011;11491;41.942;24.220;2023-05-07T01:32:21;19.77;;;14.15;;
22648;SDS011;11491;41.942;24.220;2023-05-07T01:34:53;26.70;;;16.40;;
22648;SDS011;11491;41.942;24.220;2023-05-07T01:37:21;22.27;;;14.80;;
22648;SDS011;11491;41.942;24.220;2023-05-07T01:39:50;22.98;;;14.93;;
22648;SDS011;11491;41.942;24.220;2023-05-07T01:42:17;21.95;;;14.30;;
22648;SDS011;11491;41.942;24.220;2023-05-07T01:44:44;15.45;;;11.23;;
22648;SDS011;11491;41.942;24.220;2023-05-07T01:47:11;16.23;;;11.82;;
22648;SDS011;11491;41.942;24.220;2023-05-07T01:49:38;19.77;;;13.15;;
22648;SDS011;11491;41.942;24.220;2023-05-07T01:52:06;17.48;;;10.82;;
22648;SDS011;11491;41.942;24.220;2023-05-07T01:54:33;14.57;;;9.77;;
22648;SDS011;11491;41.942;24.220;2023-05-07T01:57:01;12.98;;;9.70;;
22648;SDS011;11491;41.942;24.220;2023-05-07T01:59:28;13.23;;;8.80;;
22648;SDS011;11491;41.942;24.220;2023-05-07T02:01:54;13.75;;;10.02;;
22648;SDS011;11491;41.942;24.220;2023-05-07T02:04:21;11.73;;;9.25;;
22648;SDS011;11491;41.942;24.220;2023-05-07T02:06:48;13.40;;;10.30;;
22648;SDS011;11491;41.942;24.220;2023-05-07T02:09:15;14.10;;;9.75;;
22648;SDS011;11491;41.942;24.220;2023-05-07T02:11:41;13.75;;;9.85;;
22648;SDS011;11491;41.942;24.220;2023-05-07T02:14:10;15.48;;;10.18;;
22648;SDS011;11491;41.942;24.220;2023-05-07T02:16:36;12.80;;;8.75;;
22648;SDS011;11491;41.942;24.220;2023-05-07T02:19:03;12.90;;;8.70;;
22648;SDS011;11491;41.942;24.220;2023-05-07T02:21:30;12.20;;;8.30;;
22648;SDS011;11491;41.942;24.220;2023-05-07T02:23:57;13.38;;;8.13;;
22648;SDS011;11491;41.942;24.220;2023-05-07T02:26:23;10.63;;;7.22;;
22648;SDS011;11491;41.942;24.220;2023-05-07T02:28:50;9.77;;;7.07;;
22648;SDS011;11491;41.942;24.220;2023-05-07T02:31:20;8.25;;;6.07;;
22648;SDS011;11491;41.942;24.220;2023-05-07T02:33:46;9.55;;;6.70;;
22648;SDS011;11491;41.942;24.220;2023-05-07T02:36:13;9.65;;;6.70;;
22648;SDS011;11491;41.942;24.220;2023-05-07T02:38:40;8.35;;;6.80;;
22648;SDS011;11491;41.942;24.220;2023-05-07T02:41:07;9.35;;;6.85;;
22648;SDS011;11491;41.942;24.220;2023-05-07T02:43:33;10.10;;;6.63;;
22648;SDS011;11491;41.942;24.220;2023-05-07T02:46:01;8.80;;;6.22;;
22648;SDS011;11491;41.942;24.220;2023-05-07T02:48:30;11.48;;;7.63;;
22648;SDS011;11491;41.942;24.220;2023-05-07T02:50:57;11.90;;;8.52;;
22648;SDS011;11491;41.942;24.220;2023-05-07T02:53:23;11.70;;;7.00;;
22648;SDS011;11491;41.942;24.220;2023-05-07T02:55:51;8.63;;;6.68;;
22648;SDS011;11491;41.942;24.220;2023-05-07T02:58:19;8.32;;;5.75;;
22648;SDS011;11491;41.942;24.220;2023-05-07T03:00:46;8.15;;;6.47;;
22648;SDS011;11491;41.942;24.220;2023-05-07T03:03:12;9.15;;;6.38;;
22648;SDS011;11491;41.942;24.220;2023-05-07T03:05:41;8.57;;;6.53;;
22648;SDS011;11491;41.942;24.220;2023-05-07T03:08:08;7.40;;;6.13;;
22648;SDS011;11491;41.942;24.220;2023-05-07T03:10:35;10.27;;;6.20;;
22648;SDS011;11491;41.942;24.220;2023-05-07T03:13:02;8.65;;;6.10;;
22648;SDS011;11491;41.942;24.220;2023-05-07T03:15:29;12.45;;;7.00;;
22648;SDS011;11491;41.942;24.220;2023-05-07T03:17:56;15.25;;;10.63;;
22648;SDS011;11491;41.942;24.220;2023-05-07T03:20:23;14.65;;;9.15;;
22648;SDS011;11491;41.942;24.220;2023-05-07T03:22:51;10.32;;;7.07;;
22648;SDS011;11491;41.942;24.220;2023-05-07T03:25:18;10.65;;;6.18;;
22648;SDS011;11491;41.942;24.220;2023-05-07T03:27:45;8.80;;;6.43;;
22648;SDS011;11491;41.942;24.220;2023-05-07T03:30:12;9.07;;;6.45;;
22648;SDS011;11491;41.942;24.220;2023-05-07T03:32:39;10.80;;;7.22;;
22648;SDS011;11491;41.942;24.220;2023-05-07T03:35:06;9.88;;;8.48;;
22648;SDS011;11491;41.942;24.220;2023-05-07T03:37:33;12.43;;;9.55;;
22648;SDS011;11491;41.942;24.220;2023-05-07T03:40:01;12.73;;;8.20;;
22648;SDS011;11491;41.942;24.220;2023-05-07T03:42:30;12.13;;;8.77;;
22648;SDS011;11491;41.942;24.220;2023-05-07T03:44:57;11.88;;;8.65;;
22648;SDS011;11491;41.942;24.220;2023-05-07T03:47:23;15.88;;;10.70;;
22648;SDS011;11491;41.942;24.220;2023-05-07T03:49:50;12.35;;;10.85;;
22648;SDS011;11491;41.942;24.220;2023-05-07T03:52:19;15.77;;;11.88;;
22648;SDS011;11491;41.942;24.220;2023-05-07T03:54:49;14.32;;;11.77;;
22648;SDS011;11491;41.942;24.220;2023-05-07T03:57:17;14.18;;;11.75;;
22648;SDS011;11491;41.942;24.220;2023-05-07T03:59:44;19.98;;;16.42;;
22648;SDS011;11491;41.942;24.220;2023-05-07T04:02:11;17.88;;;15.98;;
22648;SDS011;11491;41.942;24.220;2023-05-07T04:04:37;27.13;;;21.05;;
22648;SDS011;11491;41.942;24.220;2023-05-07T04:07:04;21.25;;;18.98;;
22648;SDS011;11491;41.942;24.220;2023-05-07T04:09:32;36.90;;;27.80;;
22648;SDS011;11491;41.942;24.220;2023-05-07T04:11:59;27.05;;;23.02;;
22648;SDS011;11491;41.942;24.220;2023-05-07T04:14:27;28.17;;;22.10;;
22648;SDS011;11491;41.942;24.220;2023-05-07T04:16:55;31.13;;;24.15;;
22648;SDS011;11491;41.942;24.220;2023-05-07T04:19:22;31.88;;;25.08;;
22648;SDS011;11491;41.942;24.220;2023-05-07T04:21:48;32.40;;;24.98;;
22648;SDS011;11491;41.942;24.220;2023-05-07T04:24:15;38.60;;;30.05;;
22648;SDS011;11491;41.942;24.220;2023-05-07T04:26:42;34.70;;;29.55;;
22648;SDS011;11491;41.942;24.220;2023-05-07T04:29:09;37.20;;;29.83;;
22648;SDS011;11491;41.942;24.220;2023-05-07T04:31:41;33.05;;;25.80;;
22648;SDS011;11491;41.942;24.220;2023-05-07T04:34:09;24.73;;;20.02;;
22648;SDS011;11491;41.942;24.220;2023-05-07T04:36:36;24.73;;;18.30;;
22648;SDS011;11491;41.942;24.220;2023-05-07T04:39:03;23.27;;;18.65;;
22648;SDS011;11491;41.942;24.220;2023-05-07T04:41:30;23.58;;;19.55;;
22648;SDS011;11491;41.942;24.220;2023-05-07T04:43:57;20.63;;;17.33;;
22648;SDS011;11491;41.942;24.220;2023-05-07T04:46:24;17.45;;;12.77;;
22648;SDS011;11491;41.942;24.220;2023-05-07T04:48:52;15.75;;;11.18;;
22648;SDS011;11491;41.942;24.220;2023-05-07T04:51:19;14.50;;;10.98;;
22648;SDS011;11491;41.942;24.220;2023-05-07T04:53:45;23.08;;;16.10;;
22648;SDS011;11491;41.942;24.220;2023-05-07T04:56:12;31.00;;;18.17;;
22648;SDS011;11491;41.942;24.220;2023-05-07T04:58:39;14.63;;;10.25;;
22648;SDS011;11491;41.942;24.220;2023-05-07T05:01:06;13.82;;;10.38;;
22648;SDS011;11491;41.942;24.220;2023-05-07T05:03:35;15.15;;;10.50;;
22648;SDS011;11491;41.942;24.220;2023-05-07T05:13:06;51.20;;;35.47;;
22648;SDS011;11491;41.942;24.220;2023-05-07T05:15:41;24.00;;;20.15;;
22648;SDS011;11491;41.942;24.220;2023-05-07T05:18:08;27.23;;;21.52;;
22648;SDS011;11491;41.942;24.220;2023-05-07T05:20:35;27.45;;;21.50;;
22648;SDS011;11491;41.942;24.220;2023-05-07T05:23:02;14.77;;;11.98;;
22648;SDS011;11491;41.942;24.220;2023-05-07T05:25:29;17.98;;;13.38;;
22648;SDS011;11491;41.942;24.220;2023-05-07T05:27:56;17.42;;;14.02;;
22648;SDS011;11491;41.942;24.220;2023-05-07T05:30:24;11.95;;;10.57;;
22648;SDS011;11491;41.942;24.220;2023-05-07T05:32:51;8.85;;;7.68;;
22648;SDS011;11491;41.942;24.220;2023-05-07T05:35:17;10.05;;;8.60;;
22648;SDS011;11491;41.942;24.220;2023-05-07T05:37:44;7.70;;;6.90;;
22648;SDS011;11491;41.942;24.220;2023-05-07T05:40:11;11.85;;;9.57;;
22648;SDS011;11491;41.942;24.220;2023-05-07T05:42:38;17.08;;;14.95;;
22648;SDS011;11491;41.942;24.220;2023-05-07T05:45:06;13.77;;;10.85;;
22648;SDS011;11491;41.942;24.220;2023-05-07T05:47:34;12.07;;;9.75;;
22648;SDS011;11491;41.942;24.220;2023-05-07T05:50:05;17.67;;;10.68;;
22648;SDS011;11491;41.942;24.220;2023-05-07T05:52:32;12.77;;;10.10;;
22648;SDS011;11491;41.942;24.220;2023-05-07T05:54:59;15.25;;;10.98;;
22648;SDS011;11491;41.942;24.220;2023-05-07T05:57:26;16.20;;;12.95;;
22648;SDS011;11491;41.942;24.220;2023-05-07T05:59:53;9.43;;;8.27;;
22648;SDS011;11491;41.942;24.220;2023-05-07T06:02:20;11.40;;;8.63;;
22648;SDS011;11491;41.942;24.220;2023-05-07T06:04:48;10.48;;;7.68;;
22648;SDS011;11491;41.942;24.220;2023-05-07T06:07:15;9.75;;;7.50;;
22648;SDS011;11491;41.942;24.220;2023-05-07T06:09:41;9.25;;;6.68;;
22648;SDS011;11491;41.942;24.220;2023-05-07T06:12:08;12.32;;;7.05;;
22648;SDS011;11491;41.942;24.220;2023-05-07T06:14:35;12.18;;;8.82;;
22648;SDS011;11491;41.942;24.220;2023-05-07T06:17:01;10.30;;;6.13;;
22648;SDS011;11491;41.942;24.220;2023-05-07T06:19:28;10.52;;;7.35;;
22648;SDS011;11491;41.942;24.220;2023-05-07T06:21:57;7.57;;;6.38;;
22648;SDS011;11491;41.942;24.220;2023-05-07T06:24:26;8.93;;;6.03;;
22648;SDS011;11491;41.942;24.220;2023-05-07T06:26:53;17.25;;;14.93;;
22648;SDS011;11491;41.942;24.220;2023-05-07T06:29:20;12.43;;;5.43;;
22648;SDS011;11491;41.942;24.220;2023-05-07T06:31:46;9.90;;;6.18;;
22648;SDS011;11491;41.942;24.220;2023-05-07T06:34:13;9.23;;;6.18;;
22648;SDS011;11491;41.942;24.220;2023-05-07T06:36:40;8.40;;;5.50;;
22648;SDS011;11491;41.942;24.220;2023-05-07T06:39:08;6.47;;;5.03;;
22648;SDS011;11491;41.942;24.220;2023-05-07T06:41:35;10.18;;;5.63;;
22648;SDS011;11491;41.942;24.220;2023-05-07T06:44:02;9.15;;;5.20;;
22648;SDS011;11491;41.942;24.220;2023-05-07T06:46:29;11.93;;;8.68;;
22648;SDS011;11491;41.942;24.220;2023-05-07T06:48:55;8.82;;;7.80;;
22648;SDS011;11491;41.942;24.220;2023-05-07T06:51:22;8.90;;;5.90;;
22648;SDS011;11491;41.942;24.220;2023-05-07T06:53:49;6.32;;;4.53;;
22648;SDS011;11491;41.942;24.220;2023-05-07T06:56:18;8.57;;;4.50;;
22648;SDS011;11491;41.942;24.220;2023-05-07T06:58:44;13.48;;;6.25;;
22648;SDS011;11491;41.942;24.220;2023-05-07T07:01:11;5.75;;;5.20;;
22648;SDS011;11491;41.942;24.220;2023-05-07T07:03:38;7.00;;;4.20;;
22648;SDS011;11491;41.942;24.220;2023-05-07T07:06:05;4.60;;;4.18;;
22648;SDS011;11491;41.942;24.220;2023-05-07T07:08:32;4.18;;;3.78;;
22648;SDS011;11491;41.942;24.220;2023-05-07T07:10:59;7.18;;;4.55;;
22648;SDS011;11491;41.942;24.220;2023-05-07T07:13:27;7.50;;;4.50;;
22648;SDS011;11491;41.942;24.220;2023-05-07T07:15:54;6.03;;;4.85;;
22648;SDS011;11491;41.942;24.220;2023-05-07T07:18:21;8.02;;;4.80;;
22648;SDS011;11491;41.942;24.220;2023-05-07T07:20:47;8.63;;;4.20;;
22648;SDS011;11491;41.942;24.220;2023-05-07T07:23:14;5.15;;;3.92;;
22648;SDS011;11491;41.942;24.220;2023-05-07T07:25:41;9.32;;;5.32;;
22648;SDS011;11491;41.942;24.220;2023-05-07T07:28:08;7.95;;;4.10;;
22648;SDS011;11491;41.942;24.220;2023-05-07T07:30:37;6.95;;;4.60;;
22648;SDS011;11491;41.942;24.220;2023-05-07T07:33:04;7.18;;;4.10;;
22648;SDS011;11491;41.942;24.220;2023-05-07T07:35:31;4.63;;;3.75;;
22648;SDS011;11491;41.942;24.220;2023-05-07T07:37:58;4.38;;;3.28;;
22648;SDS011;11491;41.942;24.220;2023-05-07T07:40:25;14.98;;;7.85;;
22648;SDS011;11491;41.942;24.220;2023-05-07T07:42:52;13.65;;;11.65;;
22648;SDS011;11491;41.942;24.220;2023-05-07T07:45:19;10.10;;;5.18;;
22648;SDS011;11491;41.942;24.220;2023-05-07T07:47:47;5.25;;;4.10;;
22648;SDS011;11491;41.942;24.220;2023-05-07T07:50:14;9.82;;;6.25;;
22648;SDS011;11491;41.942;24.220;2023-05-07T07:52:41;5.18;;;4.22;;
22648;SDS011;11491;41.942;24.220;2023-05-07T07:55:08;8.68;;;6.28;;
22648;SDS011;11491;41.942;24.220;2023-05-07T07:57:35;6.57;;;5.75;;
22648;SDS011;11491;41.942;24.220;2023-05-07T08:00:02;12.98;;;6.32;;
22648;SDS011;11491;41.942;24.220;2023-05-07T08:02:31;6.93;;;3.95;;
22648;SDS011;11491;41.942;24.220;2023-05-07T08:04:59;7.07;;;5.25;;
22648;SDS011;11491;41.942;24.220;2023-05-07T08:07:26;6.65;;;5.93;;
22648;SDS011;11491;41.942;24.220;2023-05-07T08:09:52;5.28;;;4.18;;
22648;SDS011;11491;41.942;24.220;2023-05-07T08:12:19;9.80;;;7.40;;
22648;SDS011;11491;41.942;24.220;2023-05-07T08:14:46;6.38;;;3.90;;
22648;SDS011;11491;41.942;24.220;2023-05-07T08:17:13;4.13;;;3.65;;
22648;SDS011;11491;41.942;24.220;2023-05-07T08:19:41;5.05;;;4.50;;
22648;SDS011;11491;41.942;24.220;2023-05-07T08:22:09;6.65;;;4.35;;
22648;SDS011;11491;41.942;24.220;2023-05-07T08:24:37;5.70;;;4.65;;
22648;SDS011;11491;41.942;24.220;2023-05-07T08:27:03;4.45;;;3.28;;
22648;SDS011;11491;41.942;24.220;2023-05-07T08:29:30;8.32;;;4.03;;
22648;SDS011;11491;41.942;24.220;2023-05-07T08:31:57;6.32;;;3.92;;
22648;SDS011;11491;41.942;24.220;2023-05-07T08:34:23;4.50;;;3.85;;
22648;SDS011;11491;41.942;24.220;2023-05-07T08:36:50;7.85;;;6.18;;
22648;SDS011;11491;41.942;24.220;2023-05-07T08:39:18;6.03;;;5.43;;
22648;SDS011;11491;41.942;24.220;2023-05-07T08:41:45;5.60;;;3.75;;
22648;SDS011;11491;41.942;24.220;2023-05-07T08:44:12;12.27;;;9.85;;
22648;SDS011;11491;41.942;24.220;2023-05-07T08:46:40;15.68;;;14.15;;
22648;SDS011;11491;41.942;24.220;2023-05-07T08:49:08;10.65;;;9.02;;
22648;SDS011;11491;41.942;24.220;2023-05-07T08:51:35;10.07;;;6.15;;
22648;SDS011;11491;41.942;24.220;2023-05-07T08:54:02;7.93;;;7.00;;
22648;SDS011;11491;41.942;24.220;2023-05-07T08:56:31;5.03;;;4.10;;
22648;SDS011;11491;41.942;24.220;2023-05-07T08:58:58;9.55;;;8.25;;
22648;SDS011;11491;41.942;24.220;2023-05-07T09:01:24;10.57;;;4.18;;
22648;SDS011;11491;41.942;24.220;2023-05-07T09:03:52;11.35;;;8.75;;
22648;SDS011;11491;41.942;24.220;2023-05-07T09:06:19;5.50;;;4.85;;
22648;SDS011;11491;41.942;24.220;2023-05-07T09:08:50;8.32;;;4.80;;
22648;SDS011;11491;41.942;24.220;2023-05-07T09:11:19;5.68;;;4.72;;
22648;SDS011;11491;41.942;24.220;2023-05-07T09:13:48;13.70;;;12.27;;
22648;SDS011;11491;41.942;24.220;2023-05-07T09:16:15;17.67;;;15.95;;
22648;SDS011;11491;41.942;24.220;2023-05-07T09:18:42;8.43;;;5.50;;
22648;SDS011;11491;41.942;24.220;2023-05-07T09:21:10;3.40;;;3.10;;
22648;SDS011;11491;41.942;24.220;2023-05-07T09:23:37;5.35;;;3.67;;
22648;SDS011;11491;41.942;24.220;2023-05-07T09:26:04;9.00;;;7.82;;
22648;SDS011;11491;41.942;24.220;2023-05-07T09:28:37;10.35;;;5.75;;
22648;SDS011;11491;41.942;24.220;2023-05-07T09:31:06;14.23;;;8.25;;
22648;SDS011;11491;41.942;24.220;2023-05-07T09:33:33;4.25;;;3.85;;
22648;SDS011;11491;41.942;24.220;2023-05-07T09:36:04;8.75;;;5.43;;
22648;SDS011;11491;41.942;24.220;2023-05-07T09:38:31;9.05;;;6.15;;
22648;SDS011;11491;41.942;24.220;2023-05-07T09:41:01;9.43;;;4.50;;
22648;SDS011;11491;41.942;24.220;2023-05-07T09:43:31;6.32;;;3.75;;
22648;SDS011;11491;41.942;24.220;2023-05-07T09:46:00;5.35;;;3.65;;
22648;SDS011;11491;41.942;24.220;2023-05-07T09:48:30;13.75;;;9.73;;
22648;SDS011;11491;41.942;24.220;2023-05-07T09:53:29;7.35;;;4.10;;
22648;SDS011;11491;41.942;24.220;2023-05-07T09:55:56;4.00;;;3.30;;
22648;SDS011;11491;41.942;24.220;2023-05-07T09:58:23;4.85;;;3.80;;
22648;SDS011;11491;41.942;24.220;2023-05-07T10:00:52;6.43;;;5.13;;
22648;SDS011;11491;41.942;24.220;2023-05-07T10:03:19;6.35;;;3.92;;
22648;SDS011;11491;41.942;24.220;2023-05-07T10:05:49;4.70;;;3.70;;
22648;SDS011;11491;41.942;24.220;2023-05-07T10:08:16;6.55;;;5.50;;
22648;SDS011;11491;41.942;24.220;2023-05-07T10:10:45;8.77;;;4.78;;
22648;SDS011;11491;41.942;24.220;2023-05-07T10:13:12;5.50;;;4.22;;
22648;SDS011;11491;41.942;24.220;2023-05-07T10:15:39;4.82;;;2.90;;
22648;SDS011;11491;41.942;24.220;2023-05-07T10:18:07;10.15;;;4.57;;
22648;SDS011;11491;41.942;24.220;2023-05-07T10:20:35;6.78;;;4.95;;
22648;SDS011;11491;41.942;24.220;2023-05-07T10:23:04;8.85;;;5.28;;
22648;SDS011;11491;41.942;24.220;2023-05-07T10:25:32;5.22;;;4.28;;
22648;SDS011;11491;41.942;24.220;2023-05-07T10:27:59;6.38;;;4.03;;
22648;SDS011;11491;41.942;24.220;2023-05-07T10:30:32;9.05;;;4.18;;
22648;SDS011;11491;41.942;24.220;2023-05-07T10:33:13;5.57;;;4.20;;
22648;SDS011;11491;41.942;24.220;2023-05-07T10:35:44;7.05;;;4.20;;
22648;SDS011;11491;41.942;24.220;2023-05-07T10:38:14;8.73;;;5.13;;
22648;SDS011;11491;41.942;24.220;2023-05-07T10:40:41;8.27;;;4.40;;
22648;SDS011;11491;41.942;24.220;2023-05-07T10:43:09;9.45;;;5.15;;
22648;SDS011;11491;41.942;24.220;2023-05-07T10:45:36;5.75;;;3.85;;
22648;SDS011;11491;41.942;24.220;2023-05-07T10:48:06;4.53;;;3.75;;
22648;SDS011;11491;41.942;24.220;2023-05-07T10:50:37;5.00;;;3.58;;
22648;SDS011;11491;41.942;24.220;2023-05-07T10:53:24;5.13;;;3.65;;
22648;SDS011;11491;41.942;24.220;2023-05-07T10:58:53;6.13;;;4.95;;
22648;SDS011;11491;41.942;24.220;2023-05-07T11:01:48;4.32;;;3.83;;
22648;SDS011;11491;41.942;24.220;2023-05-07T11:04:16;10.65;;;6.40;;
22648;SDS011;11491;41.942;24.220;2023-05-07T11:09:57;5.88;;;4.97;;
22648;SDS011;11491;41.942;24.220;2023-05-07T11:15:14;7.22;;;4.18;;
22648;SDS011;11491;41.942;24.220;2023-05-07T11:17:52;6.10;;;3.97;;
22648;SDS011;11491;41.942;24.220;2023-05-07T11:20:19;4.43;;;3.63;;
22648;SDS011;11491;41.942;24.220;2023-05-07T11:22:46;6.80;;;3.40;;
22648;SDS011;11491;41.942;24.220;2023-05-07T11:25:18;6.57;;;3.72;;
22648;SDS011;11491;41.942;24.220;2023-05-07T11:27:45;4.82;;;3.28;;
22648;SDS011;11491;41.942;24.220;2023-05-07T11:30:16;7.18;;;4.03;;
22648;SDS011;11491;41.942;24.220;2023-05-07T11:32:44;6.55;;;3.88;;
22648;SDS011;11491;41.942;24.220;2023-05-07T11:35:13;5.72;;;5.13;;
22648;SDS011;11491;41.942;24.220;2023-05-07T11:37:42;4.18;;;3.78;;
22648;SDS011;11491;41.942;24.220;2023-05-07T11:40:11;6.57;;;3.88;;
22648;SDS011;11491;41.942;24.220;2023-05-07T11:42:40;5.20;;;3.60;;
22648;SDS011;11491;41.942;24.220;2023-05-07T11:45:08;6.85;;;5.20;;
22648;SDS011;11491;41.942;24.220;2023-05-07T11:47:35;7.63;;;5.78;;
22648;SDS011;11491;41.942;24.220;2023-05-07T11:50:05;5.63;;;4.05;;
22648;SDS011;11491;41.942;24.220;2023-05-07T11:52:35;7.18;;;4.85;;
22648;SDS011;11491;41.942;24.220;2023-05-07T11:55:04;6.88;;;5.65;;
22648;SDS011;11491;41.942;24.220;2023-05-07T11:57:33;7.43;;;5.63;;
22648;SDS011;11491;41.942;24.220;2023-05-07T12:00:02;6.72;;;4.38;;
22648;SDS011;11491;41.942;24.220;2023-05-07T12:02:32;11.18;;;6.55;;
22648;SDS011;11491;41.942;24.220;2023-05-07T12:05:00;5.03;;;4.25;;
22648;SDS011;11491;41.942;24.220;2023-05-07T12:07:27;8.15;;;5.28;;
22648;SDS011;11491;41.942;24.220;2023-05-07T12:09:54;8.93;;;5.05;;
22648;SDS011;11491;41.942;24.220;2023-05-07T12:12:21;6.43;;;5.38;;
22648;SDS011;11491;41.942;24.220;2023-05-07T12:14:48;5.32;;;4.80;;
22648;SDS011;11491;41.942;24.220;2023-05-07T12:17:16;4.80;;;4.25;;
22648;SDS011;11491;41.942;24.220;2023-05-07T12:19:43;8.82;;;3.80;;
22648;SDS011;11491;41.942;24.220;2023-05-07T12:22:11;5.32;;;4.13;;
22648;SDS011;11491;41.942;24.220;2023-05-07T12:24:43;4.18;;;3.50;;
22648;SDS011;11491;41.942;24.220;2023-05-07T12:27:11;6.00;;;3.88;;
22648;SDS011;11491;41.942;24.220;2023-05-07T12:29:37;5.70;;;4.28;;
22648;SDS011;11491;41.942;24.220;2023-05-07T12:32:06;5.72;;;3.90;;
22648;SDS011;11491;41.942;24.220;2023-05-07T12:34:34;5.63;;;4.20;;
22648;SDS011;11491;41.942;24.220;2023-05-07T12:37:01;5.22;;;4.35;;
22648;SDS011;11491;41.942;24.220;2023-05-07T12:39:28;15.68;;;5.47;;
22648;SDS011;11491;41.942;24.220;2023-05-07T12:41:55;7.13;;;4.47;;
22648;SDS011;11491;41.942;24.220;2023-05-07T12:44:24;5.43;;;4.63;;
22648;SDS011;11491;41.942;24.220;2023-05-07T12:46:55;4.63;;;3.38;;
22648;SDS011;11491;41.942;24.220;2023-05-07T12:49:22;7.50;;;4.70;;
22648;SDS011;11491;41.942;24.220;2023-05-07T12:51:51;7.45;;;4.43;;
22648;SDS011;11491;41.942;24.220;2023-05-07T12:54:28;5.38;;;3.97;;
22648;SDS011;11491;41.942;24.220;2023-05-07T12:57:00;6.63;;;4.00;;
22648;SDS011;11491;41.942;24.220;2023-05-07T12:59:30;4.40;;;3.60;;
22648;SDS011;11491;41.942;24.220;2023-05-07T13:01:58;10.00;;;6.88;;
22648;SDS011;11491;41.942;24.220;2023-05-07T13:04:24;17.10;;;12.85;;
22648;SDS011;11491;41.942;24.220;2023-05-07T13:06:52;4.95;;;3.35;;
22648;SDS011;11491;41.942;24.220;2023-05-07T13:09:19;4.25;;;3.08;;
22648;SDS011;11491;41.942;24.220;2023-05-07T13:11:46;8.05;;;4.32;;
22648;SDS011;11491;41.942;24.220;2023-05-07T13:14:13;3.60;;;3.25;;
22648;SDS011;11491;41.942;24.220;2023-05-07T13:16:40;8.20;;;6.47;;
22648;SDS011;11491;41.942;24.220;2023-05-07T13:19:06;6.85;;;3.95;;
22648;SDS011;11491;41.942;24.220;2023-05-07T13:21:33;6.88;;;3.33;;
22648;SDS011;11491;41.942;24.220;2023-05-07T13:24:01;3.88;;;3.00;;
22648;SDS011;11491;41.942;24.220;2023-05-07T13:26:29;5.55;;;3.00;;
22648;SDS011;11491;41.942;24.220;2023-05-07T13:28:56;5.32;;;3.58;;
22648;SDS011;11491;41.942;24.220;2023-05-07T13:31:23;7.45;;;4.50;;
22648;SDS011;11491;41.942;24.220;2023-05-07T13:33:51;8.18;;;4.88;;
22648;SDS011;11491;41.942;24.220;2023-05-07T13:36:17;9.60;;;6.53;;
22648;SDS011;11491;41.942;24.220;2023-05-07T13:38:44;7.45;;;6.15;;
22648;SDS011;11491;41.942;24.220;2023-05-07T13:41:12;7.50;;;6.25;;
22648;SDS011;11491;41.942;24.220;2023-05-07T13:43:39;8.82;;;5.53;;
22648;SDS011;11491;41.942;24.220;2023-05-07T13:46:06;5.07;;;3.78;;
22648;SDS011;11491;41.942;24.220;2023-05-07T13:48:33;8.00;;;6.00;;
22648;SDS011;11491;41.942;24.220;2023-05-07T13:51:00;7.65;;;4.78;;
22648;SDS011;11491;41.942;24.220;2023-05-07T13:53:26;4.63;;;2.63;;
22648;SDS011;11491;41.942;24.220;2023-05-07T13:55:53;8.43;;;5.03;;
22648;SDS011;11491;41.942;24.220;2023-05-07T13:58:21;5.32;;;3.28;;
22648;SDS011;11491;41.942;24.220;2023-05-07T14:00:48;9.95;;;3.55;;
22648;SDS011;11491;41.942;24.220;2023-05-07T14:03:15;9.20;;;7.45;;
22648;SDS011;11491;41.942;24.220;2023-05-07T14:05:42;7.30;;;3.78;;
22648;SDS011;11491;41.942;24.220;2023-05-07T14:08:09;5.38;;;2.75;;
22648;SDS011;11491;41.942;24.220;2023-05-07T14:10:37;3.80;;;3.20;;
22648;SDS011;11491;41.942;24.220;2023-05-07T14:13:04;9.45;;;3.10;;
22648;SDS011;11491;41.942;24.220;2023-05-07T14:15:32;7.82;;;4.18;;
22648;SDS011;11491;41.942;24.220;2023-05-07T14:17:59;3.83;;;3.40;;
22648;SDS011;11491;41.942;24.220;2023-05-07T14:20:26;6.85;;;4.68;;
22648;SDS011;11491;41.942;24.220;2023-05-07T14:22:53;5.82;;;3.50;;
22648;SDS011;11491;41.942;24.220;2023-05-07T14:25:20;7.13;;;5.15;;
22648;SDS011;11491;41.942;24.220;2023-05-07T14:27:46;4.03;;;2.92;;
22648;SDS011;11491;41.942;24.220;2023-05-07T14:30:13;3.35;;;3.05;;
22648;SDS011;11491;41.942;24.220;2023-05-07T14:32:43;6.22;;;3.42;;
22648;SDS011;11491;41.942;24.220;2023-05-07T14:35:09;9.55;;;5.72;;
22648;SDS011;11491;41.942;24.220;2023-05-07T14:37:36;5.03;;;2.80;;
22648;SDS011;11491;41.942;24.220;2023-05-07T14:40:03;6.53;;;4.22;;
22648;SDS011;11491;41.942;24.220;2023-05-07T14:42:31;5.57;;;3.53;;
22648;SDS011;11491;41.942;24.220;2023-05-07T14:44:58;7.18;;;3.42;;
22648;SDS011;11491;41.942;24.220;2023-05-07T14:47:24;6.32;;;3.78;;